Mugla, Turkey
Current Conditions -  °F | °C
As of 11:50 AM on Friday 19 Dec 2014 (Local Time) from LTFE Reporting Station
Scattered Clouds Scattered Clouds  
Wind Chill: 16°   Ceiling: Unl
Heat Index: 16°   Visibility: 6mi
Dew Point: 10°   Wind: 5mph
Humidity: 68%   Direction: 300°WNW
Pressure: 30.12"   Gusts: NA
Location:  37.22°N, 28.36°E
Report Text: LTFE 190950Z 30004KT 250V350 9999 SCT035 16/10 Q1020 NOSIG
Loading
Personal Weather Stations






























Interactive Weather Map New forecast layout! Learn more

10-Day Weather Forecast

Advertisements
Track Severe Weather on mobile